sensor_id;sensor_type;location;lat;lon;timestamp;temperature;humidity
18454;DHT22;9356;52.202;20.950;2023-02-01T00:07:36;3.00;99.90
18454;DHT22;9356;52.202;20.950;2023-02-01T00:09:05;3.00;99.90
18454;DHT22;9356;52.202;20.950;2023-02-01T00:24:12;3.30;99.90
18454;DHT22;9356;52.202;20.950;2023-02-01T00:52:54;4.00;99.90
18454;DHT22;9356;52.202;20.950;2023-02-01T00:54:45;4.00;99.90
18454;DHT22;9356;52.202;20.950;2023-02-01T00:56:30;4.00;99.90
18454;DHT22;9356;52.202;20.950;2023-02-01T01:08:24;4.00;99.90
18454;DHT22;9356;52.202;20.950;2023-02-01T01:52:00;3.90;99.90
18454;DHT22;9356;52.202;20.950;2023-02-01T02:03:39;3.90;99.90
18454;DHT22;9356;52.202;20.950;2023-02-01T02:05:10;3.90;99.90
18454;DHT22;9356;52.202;20.950;2023-02-01T02:27:34;3.80;99.90
18454;DHT22;9356;52.202;20.950;2023-02-01T03:21:38;3.70;99.90
18454;DHT22;9356;52.202;20.950;2023-02-01T03:51:42;3.30;99.90
18454;DHT22;9356;52.202;20.950;2023-02-01T04:03:21;3.40;99.90
18454;DHT22;9356;52.202;20.950;2023-02-01T04:18:40;3.40;99.90
18454;DHT22;9356;52.202;20.950;2023-02-01T04:26:35;3.60;99.90
18454;DHT22;9356;52.202;20.950;2023-02-01T04:28:33;3.50;99.90
18454;DHT22;9356;52.202;20.950;2023-02-01T05:57:03;3.40;99.90
18454;DHT22;9356;52.202;20.950;2023-02-01T06:02:03;3.30;99.90
18454;DHT22;9356;52.202;20.950;2023-02-01T06:06:45;3.40;99.90
18454;DHT22;9356;52.202;20.950;2023-02-01T07:04:17;3.30;99.90
18454;DHT22;9356;52.202;20.950;2023-02-01T07:17:13;3.60;99.90
18454;DHT22;9356;52.202;20.950;2023-02-01T07:18:55;3.60;99.90
18454;DHT22;9356;52.202;20.950;2023-02-01T07:23:11;3.60;99.90
18454;DHT22;9356;52.202;20.950;2023-02-01T07:24:35;3.80;99.90
18454;DHT22;9356;52.202;20.950;2023-02-01T07:26:13;3.80;99.90
18454;DHT22;9356;52.202;20.950;2023-02-01T08:47:58;3.80;99.90
18454;DHT22;9356;52.202;20.950;2023-02-01T08:49:31;3.80;99.90
18454;DHT22;9356;52.202;20.950;2023-02-01T08:52:59;3.80;99.90
18454;DHT22;9356;52.202;20.950;2023-02-01T08:54:10;3.80;99.90
18454;DHT22;9356;52.202;20.950;2023-02-01T09:12:46;3.80;99.90
18454;DHT22;9356;52.202;20.950;2023-02-01T09:14:15;3.90;99.90
18454;DHT22;9356;52.202;20.950;2023-02-01T09:16:06;3.90;99.90
18454;DHT22;9356;52.202;20.950;2023-02-01T09:17:15;3.90;99.90
18454;DHT22;9356;52.202;20.950;2023-02-01T09:21:55;3.90;99.90
18454;DHT22;9356;52.202;20.950;2023-02-01T09:23:33;4.30;99.90
18454;DHT22;9356;52.202;20.950;2023-02-01T09:25:05;4.00;99.90
18454;DHT22;9356;52.202;20.950;2023-02-01T10:58:10;5.00;99.90
18454;DHT22;9356;52.202;20.950;2023-02-01T11:17:29;5.50;99.90
18454;DHT22;9356;52.202;20.950;2023-02-01T11:20:48;5.90;99.90
18454;DHT22;9356;52.202;20.950;2023-02-01T11:56:53;5.40;99.90
18454;DHT22;9356;52.202;20.950;2023-02-01T12:24:44;5.80;99.90
18454;DHT22;9356;52.202;20.950;2023-02-01T13:02:34;5.70;99.90
18454;DHT22;9356;52.202;20.950;2023-02-01T13:04:30;5.70;99.90
18454;DHT22;9356;52.202;20.950;2023-02-01T15:54:51;5.20;99.90
18454;DHT22;9356;52.202;20.950;2023-02-01T16:10:00;4.90;99.90
18454;DHT22;9356;52.202;20.950;2023-02-01T16:11:46;4.90;99.90
18454;DHT22;9356;52.202;20.950;2023-02-01T16:16:58;4.80;99.90
18454;DHT22;9356;52.202;20.950;2023-02-01T16:18:47;4.70;99.90
18454;DHT22;9356;52.202;20.950;2023-02-01T16:20:17;4.60;99.90
18454;DHT22;9356;52.202;20.950;2023-02-01T16:22:29;4.60;99.90
18454;DHT22;9356;52.202;20.950;2023-02-01T17:12:33;4.70;99.90
18454;DHT22;9356;52.202;20.950;2023-02-01T18:24:42;5.00;99.90
18454;DHT22;9356;52.202;20.950;2023-02-01T19:07:40;4.40;99.90
18454;DHT22;9356;52.202;20.950;2023-02-01T19:13:58;4.40;99.90
18454;DHT22;9356;52.202;20.950;2023-02-01T20:14:43;4.50;99.90
18454;DHT22;9356;52.202;20.950;2023-02-01T20:15:47;4.40;99.90
18454;DHT22;9356;52.202;20.950;2023-02-01T20:16:52;4.40;99.90
18454;DHT22;9356;52.202;20.950;2023-02-01T20:17:56;4.40;99.90
18454;DHT22;9356;52.202;20.950;2023-02-01T20:19:00;4.40;99.90
18454;DHT22;9356;52.202;20.950;2023-02-01T20:20:04;4.50;99.90
18454;DHT22;9356;52.202;20.950;2023-02-01T20:21:08;4.40;99.90
18454;DHT22;9356;52.202;20.950;2023-02-01T20:22:11;4.50;99.90
18454;DHT22;9356;52.202;20.950;2023-02-01T20:23:15;4.40;99.90
18454;DHT22;9356;52.202;20.950;2023-02-01T20:24:20;4.40;99.90
18454;DHT22;9356;52.202;20.950;2023-02-01T20:25:24;4.30;99.90
18454;DHT22;9356;52.202;20.950;2023-02-01T20:26:28;4.20;99.90
18454;DHT22;9356;52.202;20.950;2023-02-01T20:27:35;4.20;99.90
18454;DHT22;9356;52.202;20.950;2023-02-01T20:28:39;4.20;99.90
18454;DHT22;9356;52.202;20.950;2023-02-01T20:29:44;4.20;99.90
18454;DHT22;9356;52.202;20.950;2023-02-01T20:30:56;4.20;99.90
18454;DHT22;9356;52.202;20.950;2023-02-01T20:32:02;4.30;99.90
18454;DHT22;9356;52.202;20.950;2023-02-01T20:33:06;4.10;99.90
18454;DHT22;9356;52.202;20.950;2023-02-01T20:34:11;4.10;99.90
18454;DHT22;9356;52.202;20.950;2023-02-01T20:35:15;4.10;99.90
18454;DHT22;9356;52.202;20.950;2023-02-01T20:36:21;4.00;99.90
18454;DHT22;9356;52.202;20.950;2023-02-01T20:37:33;3.90;99.90
18454;DHT22;9356;52.202;20.950;2023-02-01T20:38:44;3.90;99.90
18454;DHT22;9356;52.202;20.950;2023-02-01T20:39:48;3.90;99.90
18454;DHT22;9356;52.202;20.950;2023-02-01T20:40:52;3.90;99.90
18454;DHT22;9356;52.202;20.950;2023-02-01T20:41:56;4.00;99.90
18454;DHT22;9356;52.202;20.950;2023-02-01T20:42:59;3.90;99.90
18454;DHT22;9356;52.202;20.950;2023-02-01T20:44:02;3.90;99.90
18454;DHT22;9356;52.202;20.950;2023-02-01T20:45:09;3.90;99.90
18454;DHT22;9356;52.202;20.950;2023-02-01T20:46:12;4.00;99.90
18454;DHT22;9356;52.202;20.950;2023-02-01T20:47:16;4.00;99.90
18454;DHT22;9356;52.202;20.950;2023-02-01T20:48:23;4.10;99.90
18454;DHT22;9356;52.202;20.950;2023-02-01T20:49:26;4.10;99.90
18454;DHT22;9356;52.202;20.950;2023-02-01T20:50:30;4.20;99.90
18454;DHT22;9356;52.202;20.950;2023-02-01T20:51:33;4.20;99.90
18454;DHT22;9356;52.202;20.950;2023-02-01T20:52:37;4.20;99.90
18454;DHT22;9356;52.202;20.950;2023-02-01T20:53:44;4.10;99.90
18454;DHT22;9356;52.202;20.950;2023-02-01T20:54:49;4.00;99.90
18454;DHT22;9356;52.202;20.950;2023-02-01T20:55:59;4.00;99.90
18454;DHT22;9356;52.202;20.950;2023-02-01T20:57:05;4.00;99.90
18454;DHT22;9356;52.202;20.950;2023-02-01T20:58:08;4.00;99.90
18454;DHT22;9356;52.202;20.950;2023-02-01T20:59:12;4.00;99.90
18454;DHT22;9356;52.202;20.950;2023-02-01T21:00:24;4.00;99.90
18454;DHT22;9356;52.202;20.950;2023-02-01T21:01:30;4.00;99.90
18454;DHT22;9356;52.202;20.950;2023-02-01T21:02:34;4.00;99.90
18454;DHT22;9356;52.202;20.950;2023-02-01T21:03:38;4.00;99.90
18454;DHT22;9356;52.202;20.950;2023-02-01T21:04:42;4.00;99.90
18454;DHT22;9356;52.202;20.950;2023-02-01T21:05:47;4.00;99.90
18454;DHT22;9356;52.202;20.950;2023-02-01T21:06:52;4.00;99.90
18454;DHT22;9356;52.202;20.950;2023-02-01T21:07:56;3.90;99.90
18454;DHT22;9356;52.202;20.950;2023-02-01T21:08:59;4.00;99.90
18454;DHT22;9356;52.202;20.950;2023-02-01T21:10:03;4.00;99.90
18454;DHT22;9356;52.202;20.950;2023-02-01T21:11:10;4.10;99.90
18454;DHT22;9356;52.202;20.950;2023-02-01T21:12:18;4.10;99.90
18454;DHT22;9356;52.202;20.950;2023-02-01T21:13:22;4.20;99.90
18454;DHT22;9356;52.202;20.950;2023-02-01T21:14:26;4.10;99.90
18454;DHT22;9356;52.202;20.950;2023-02-01T21:15:32;4.10;99.90
18454;DHT22;9356;52.202;20.950;2023-02-01T21:16:36;4.00;99.90
18454;DHT22;9356;52.202;20.950;2023-02-01T21:17:40;4.20;99.90
18454;DHT22;9356;52.202;20.950;2023-02-01T21:18:43;4.20;99.90
18454;DHT22;9356;52.202;20.950;2023-02-01T21:19:47;4.30;99.90
18454;DHT22;9356;52.202;20.950;2023-02-01T21:20:50;4.40;99.90
18454;DHT22;9356;52.202;20.950;2023-02-01T21:21:55;4.30;99.90
18454;DHT22;9356;52.202;20.950;2023-02-01T21:23:03;4.30;99.90
18454;DHT22;9356;52.202;20.950;2023-02-01T21:24:07;4.30;99.90
18454;DHT22;9356;52.202;20.950;2023-02-01T21:25:14;4.30;99.90
18454;DHT22;9356;52.202;20.950;2023-02-01T21:26:20;4.30;99.90
18454;DHT22;9356;52.202;20.950;2023-02-01T21:27:24;4.20;99.90
18454;DHT22;9356;52.202;20.950;2023-02-01T21:28:27;4.20;99.90
18454;DHT22;9356;52.202;20.950;2023-02-01T21:29:30;4.30;99.90
18454;DHT22;9356;52.202;20.950;2023-02-01T21:30:35;4.30;99.90
18454;DHT22;9356;52.202;20.950;2023-02-01T21:31:40;4.30;99.90
18454;DHT22;9356;52.202;20.950;2023-02-01T21:32:44;4.20;99.90
18454;DHT22;9356;52.202;20.950;2023-02-01T21:33:51;4.30;99.90
18454;DHT22;9356;52.202;20.950;2023-02-01T21:34:55;4.40;99.90
18454;DHT22;9356;52.202;20.950;2023-02-01T21:36:01;4.40;99.90
18454;DHT22;9356;52.202;20.950;2023-02-01T21:37:05;4.30;99.90
18454;DHT22;9356;52.202;20.950;2023-02-01T21:38:09;4.30;99.90
18454;DHT22;9356;52.202;20.950;2023-02-01T21:39:19;4.30;99.90
18454;DHT22;9356;52.202;20.950;2023-02-01T21:40:27;4.30;99.90
18454;DHT22;9356;52.202;20.950;2023-02-01T21:41:35;4.30;99.90
18454;DHT22;9356;52.202;20.950;2023-02-01T21:43:01;4.40;99.90
18454;DHT22;9356;52.202;20.950;2023-02-01T21:44:05;4.40;99.90
18454;DHT22;9356;52.202;20.950;2023-02-01T21:45:09;4.40;99.90
18454;DHT22;9356;52.202;20.950;2023-02-01T21:46:15;4.50;99.90
18454;DHT22;9356;52.202;20.950;2023-02-01T21:47:21;4.70;99.90
18454;DHT22;9356;52.202;20.950;2023-02-01T21:48:28;4.60;99.90
18454;DHT22;9356;52.202;20.950;2023-02-01T21:49:51;4.50;99.90
18454;DHT22;9356;52.202;20.950;2023-02-01T21:50:56;4.50;99.90
18454;DHT22;9356;52.202;20.950;2023-02-01T21:52:00;4.40;99.90
18454;DHT22;9356;52.202;20.950;2023-02-01T21:53:04;4.40;99.90
18454;DHT22;9356;52.202;20.950;2023-02-01T21:54:09;4.40;99.90
18454;DHT22;9356;52.202;20.950;2023-02-01T21:55:17;4.30;99.90
18454;DHT22;9356;52.202;20.950;2023-02-01T21:56:25;4.30;99.90
18454;DHT22;9356;52.202;20.950;2023-02-01T21:57:28;4.30;99.90
18454;DHT22;9356;52.202;20.950;2023-02-01T21:58:31;4.20;99.90
18454;DHT22;9356;52.202;20.950;2023-02-01T21:59:34;4.30;99.90
18454;DHT22;9356;52.202;20.950;2023-02-01T22:00:38;4.30;99.90
18454;DHT22;9356;52.202;20.950;2023-02-01T22:01:43;4.40;99.90
18454;DHT22;9356;52.202;20.950;2023-02-01T22:02:46;4.40;99.90
18454;DHT22;9356;52.202;20.950;2023-02-01T22:03:50;4.30;99.90
18454;DHT22;9356;52.202;20.950;2023-02-01T22:04:54;4.20;99.90
18454;DHT22;9356;52.202;20.950;2023-02-01T22:05:59;4.20;99.90
18454;DHT22;9356;52.202;20.950;2023-02-01T22:07:02;4.30;99.90
18454;DHT22;9356;52.202;20.950;2023-02-01T22:08:06;4.30;99.90
18454;DHT22;9356;52.202;20.950;2023-02-01T22:09:15;4.40;99.90
18454;DHT22;9356;52.202;20.950;2023-02-01T22:10:20;4.30;99.90
18454;DHT22;9356;52.202;20.950;2023-02-01T22:11:23;4.30;99.90
18454;DHT22;9356;52.202;20.950;2023-02-01T22:12:32;4.30;99.90
18454;DHT22;9356;52.202;20.950;2023-02-01T22:13:36;4.30;99.90
18454;DHT22;9356;52.202;20.950;2023-02-01T22:14:39;4.30;99.90
18454;DHT22;9356;52.202;20.950;2023-02-01T22:15:46;4.30;99.90
18454;DHT22;9356;52.202;20.950;2023-02-01T22:16:49;4.40;99.90
18454;DHT22;9356;52.202;20.950;2023-02-01T22:17:54;4.30;99.90
18454;DHT22;9356;52.202;20.950;2023-02-01T22:18:56;4.30;99.90
18454;DHT22;9356;52.202;20.950;2023-02-01T22:20:00;4.20;99.90
18454;DHT22;9356;52.202;20.950;2023-02-01T22:21:04;4.30;99.90
18454;DHT22;9356;52.202;20.950;2023-02-01T22:22:09;4.30;99.90
18454;DHT22;9356;52.202;20.950;2023-02-01T22:23:15;4.30;99.90
18454;DHT22;9356;52.202;20.950;2023-02-01T22:24:18;4.20;99.90
18454;DHT22;9356;52.202;20.950;2023-02-01T22:25:23;4.20;99.90
18454;DHT22;9356;52.202;20.950;2023-02-01T22:26:27;4.20;99.90
18454;DHT22;9356;52.202;20.950;2023-02-01T22:27:30;4.20;99.90
18454;DHT22;9356;52.202;20.950;2023-02-01T22:28:54;4.10;99.90
18454;DHT22;9356;52.202;20.950;2023-02-01T22:29:57;4.00;99.90
18454;DHT22;9356;52.202;20.950;2023-02-01T22:31:02;4.00;99.90
18454;DHT22;9356;52.202;20.950;2023-02-01T22:32:06;4.10;99.90
18454;DHT22;9356;52.202;20.950;2023-02-01T22:33:12;4.10;99.90
18454;DHT22;9356;52.202;20.950;2023-02-01T22:34:15;4.10;99.90
18454;DHT22;9356;52.202;20.950;2023-02-01T22:35:19;4.10;99.90
18454;DHT22;9356;52.202;20.950;2023-02-01T22:36:28;4.00;99.90
18454;DHT22;9356;52.202;20.950;2023-02-01T22:37:34;3.90;99.90
18454;DHT22;9356;52.202;20.950;2023-02-01T22:38:37;3.90;99.90
18454;DHT22;9356;52.202;20.950;2023-02-01T22:39:40;3.80;99.90
18454;DHT22;9356;52.202;20.950;2023-02-01T22:40:44;3.80;99.90
18454;DHT22;9356;52.202;20.950;2023-02-01T22:41:47;3.80;99.90
18454;DHT22;9356;52.202;20.950;2023-02-01T22:42:50;3.90;99.90
18454;DHT22;9356;52.202;20.950;2023-02-01T22:43:54;4.00;99.90
18454;DHT22;9356;52.202;20.950;2023-02-01T22:44:58;4.00;99.90
18454;DHT22;9356;52.202;20.950;2023-02-01T22:46:10;3.80;99.90
18454;DHT22;9356;52.202;20.950;2023-02-01T22:47:15;3.80;99.90
18454;DHT22;9356;52.202;20.950;2023-02-01T22:48:24;3.80;99.90
18454;DHT22;9356;52.202;20.950;2023-02-01T22:49:27;3.70;99.90
18454;DHT22;9356;52.202;20.950;2023-02-01T22:50:34;3.70;99.90
18454;DHT22;9356;52.202;20.950;2023-02-01T22:51:36;3.80;99.90
18454;DHT22;9356;52.202;20.950;2023-02-01T22:52:40;3.80;99.90
18454;DHT22;9356;52.202;20.950;2023-02-01T22:53:43;3.90;99.90
18454;DHT22;9356;52.202;20.950;2023-02-01T22:54:47;3.90;99.90
18454;DHT22;9356;52.202;20.950;2023-02-01T22:55:51;3.80;99.90
18454;DHT22;9356;52.202;20.950;2023-02-01T22:56:53;3.80;99.90
18454;DHT22;9356;52.202;20.950;2023-02-01T22:57:57;3.90;99.90
18454;DHT22;9356;52.202;20.950;2023-02-01T22:59:02;3.90;99.90
18454;DHT22;9356;52.202;20.950;2023-02-01T23:00:09;3.90;99.90
18454;DHT22;9356;52.202;20.950;2023-02-01T23:01:13;3.90;99.90
18454;DHT22;9356;52.202;20.950;2023-02-01T23:02:18;3.90;99.90
18454;DHT22;9356;52.202;20.950;2023-02-01T23:03:25;3.70;99.90
18454;DHT22;9356;52.202;20.950;2023-02-01T23:04:32;3.60;99.90
18454;DHT22;9356;52.202;20.950;2023-02-01T23:05:36;3.70;99.90
18454;DHT22;9356;52.202;20.950;2023-02-01T23:06:39;3.70;99.90
18454;DHT22;9356;52.202;20.950;2023-02-01T23:07:45;3.80;99.90
18454;DHT22;9356;52.202;20.950;2023-02-01T23:08:48;3.70;99.90
18454;DHT22;9356;52.202;20.950;2023-02-01T23:10:01;3.70;99.90
18454;DHT22;9356;52.202;20.950;2023-02-01T23:11:07;3.70;99.90
18454;DHT22;9356;52.202;20.950;2023-02-01T23:12:11;3.80;99.90
18454;DHT22;9356;52.202;20.950;2023-02-01T23:13:14;3.80;99.90
18454;DHT22;9356;52.202;20.950;2023-02-01T23:14:17;3.70;99.90
18454;DHT22;9356;52.202;20.950;2023-02-01T23:15:25;3.70;99.90
18454;DHT22;9356;52.202;20.950;2023-02-01T23:16:28;3.70;99.90
18454;DHT22;9356;52.202;20.950;2023-02-01T23:17:34;3.70;99.90
18454;DHT22;9356;52.202;20.950;2023-02-01T23:18:37;3.70;99.90
18454;DHT22;9356;52.202;20.950;2023-02-01T23:19:41;3.70;99.90
18454;DHT22;9356;52.202;20.950;2023-02-01T23:20:44;3.60;99.90
18454;DHT22;9356;52.202;20.950;2023-02-01T23:21:48;3.40;99.90
18454;DHT22;9356;52.202;20.950;2023-02-01T23:22:53;3.50;99.90
18454;DHT22;9356;52.202;20.950;2023-02-01T23:23:58;3.40;99.90
18454;DHT22;9356;52.202;20.950;2023-02-01T23:25:02;3.50;99.90
18454;DHT22;9356;52.202;20.950;2023-02-01T23:26:11;3.50;99.90
18454;DHT22;9356;52.202;20.950;2023-02-01T23:27:18;3.50;99.90
18454;DHT22;9356;52.202;20.950;2023-02-01T23:28:21;3.60;99.90
18454;DHT22;9356;52.202;20.950;2023-02-01T23:29:25;3.50;99.90
18454;DHT22;9356;52.202;20.950;2023-02-01T23:30:30;3.60;99.90
18454;DHT22;9356;52.202;20.950;2023-02-01T23:31:33;3.60;99.90
18454;DHT22;9356;52.202;20.950;2023-02-01T23:32:38;3.50;99.90
18454;DHT22;9356;52.202;20.950;2023-02-01T23:33:44;3.40;99.90
18454;DHT22;9356;52.202;20.950;2023-02-01T23:34:50;3.40;99.90
18454;DHT22;9356;52.202;20.950;2023-02-01T23:35:54;3.40;99.90
18454;DHT22;9356;52.202;20.950;2023-02-01T23:36:58;3.40;99.90
18454;DHT22;9356;52.202;20.950;2023-02-01T23:38:05;3.50;99.90
18454;DHT22;9356;52.202;20.950;2023-02-01T23:39:09;3.50;99.90
18454;DHT22;9356;52.202;20.950;2023-02-01T23:40:12;3.60;99.90
18454;DHT22;9356;52.202;20.950;2023-02-01T23:41:18;3.50;99.90
18454;DHT22;9356;52.202;20.950;2023-02-01T23:42:21;3.50;99.90
18454;DHT22;9356;52.202;20.950;2023-02-01T23:43:26;3.40;99.90
18454;DHT22;9356;52.202;20.950;2023-02-01T23:44:47;3.30;99.90
18454;DHT22;9356;52.202;20.950;2023-02-01T23:45:56;3.30;99.90
18454;DHT22;9356;52.202;20.950;2023-02-01T23:46:59;3.30;99.90
18454;DHT22;9356;52.202;20.950;2023-02-01T23:48:04;3.40;99.90
18454;DHT22;9356;52.202;20.950;2023-02-01T23:49:08;3.30;99.90
18454;DHT22;9356;52.202;20.950;2023-02-01T23:50:12;3.30;99.90
18454;DHT22;9356;52.202;20.950;2023-02-01T23:51:17;3.40;99.90
18454;DHT22;9356;52.202;20.950;2023-02-01T23:52:25;3.40;99.90
18454;DHT22;9356;52.202;20.950;2023-02-01T23:53:28;3.30;99.90
18454;DHT22;9356;52.202;20.950;2023-02-01T23:54:31;3.30;99.90
18454;DHT22;9356;52.202;20.950;2023-02-01T23:55:35;3.30;99.90
18454;DHT22;9356;52.202;20.950;2023-02-01T23:56:39;3.30;99.90
18454;DHT22;9356;52.202;20.950;2023-02-01T23:57:50;3.40;99.90
18454;DHT22;9356;52.202;20.950;2023-02-01T23:58:55;3.30;99.90
18454;DHT22;9356;52.202;20.950;2023-02-01T23:59:59;3.40;99.90
